Time;durP1;ratioP1;P1;durP2;ratioP2;P2;SDS_P1;SDS_P2;PMS_P1;PMS_P2;Temp;Humidity;BMP_temperature;BMP_pressure;BME280_temperature;BME280_humidity;BME280_pressure;Samples;Min_cycle;Max_cycle;Signal;HPM_P1;HPM_P2
2023/02/04 00:01:53;;;;;;;3.92;1.30;;;;;;;;;;4587004;27;20028;-61
2023/02/04 00:04:03;;;;;;;3.17;1.25;;;;;;;;;;4587209;27;20264;-60
2023/02/04 00:06:13;;;;;;;3.22;1.10;;;;;;;;;;4585584;27;20055;-60
2023/02/04 00:08:24;;;;;;;3.08;1.30;;;;;;;;;;4588028;27;20035;-62
2023/02/04 00:10:35;;;;;;;2.67;1.00;;;;;;;;;;4584199;27;20027;-60
2023/02/04 00:12:45;;;;;;;2.28;1.00;;;;;;;;;;4587162;27;20142;-61
2023/02/04 00:14:55;;;;;;;2.70;1.10;;;;;;;;;;4589183;27;20526;-60
2023/02/04 00:17:15;;;;;;;3.22;1.20;;;;;;;;;;4591152;27;20092;-60
2023/02/04 00:19:25;;;;;;;2.42;1.10;;;;;;;;;;4587713;27;20345;-60
2023/02/04 00:21:36;;;;;;;2.58;1.10;;;;;;;;;;4589592;27;20036;-60
2023/02/04 00:23:46;;;;;;;2.60;1.13;;;;;;;;;;4587026;27;20051;-60
2023/02/04 00:25:56;;;;;;;3.00;1.30;;;;;;;;;;4586617;27;20042;-59
2023/02/04 00:28:06;;;;;;;2.53;1.10;;;;;;;;;;4589290;27;20044;-60
2023/02/04 00:30:17;;;;;;;2.83;1.17;;;;;;;;;;4586755;27;20027;-61
2023/02/04 00:32:27;;;;;;;2.13;0.93;;;;;;;;;;4585515;27;20054;-60
2023/02/04 00:34:37;;;;;;;2.42;1.10;;;;;;;;;;4586937;27;20100;-60
2023/02/04 00:36:48;;;;;;;2.47;1.05;;;;;;;;;;4583470;27;20047;-60
2023/02/04 00:39:00;;;;;;;2.78;1.20;;;;;;;;;;4588023;27;20879;-60
2023/02/04 00:41:10;;;;;;;2.47;0.90;;;;;;;;;;4588804;27;20110;-61
2023/02/04 00:43:20;;;;;;;2.25;1.17;;;;;;;;;;4589384;27;20040;-60
2023/02/04 00:45:31;;;;;;;2.45;1.00;;;;;;;;;;4589253;27;20500;-60
2023/02/04 00:47:41;;;;;;;2.33;1.00;;;;;;;;;;4586343;27;20849;-61
2023/02/04 00:49:54;;;;;;;2.25;1.00;;;;;;;;;;4585645;27;20081;-60
2023/02/04 00:52:06;;;;;;;2.25;0.93;;;;;;;;;;4578684;27;20034;-61
2023/02/04 00:54:16;;;;;;;3.13;1.30;;;;;;;;;;4575020;27;20039;-60
2023/02/04 00:56:26;;;;;;;2.20;0.90;;;;;;;;;;4588567;27;20035;-61
2023/02/04 00:58:37;;;;;;;2.60;1.08;;;;;;;;;;4587174;27;20035;-61
2023/02/04 01:00:47;;;;;;;1.83;0.90;;;;;;;;;;4586506;27;20024;-61
2023/02/04 01:02:57;;;;;;;2.13;1.02;;;;;;;;;;4586388;27;20036;-60
2023/02/04 01:05:09;;;;;;;2.75;1.15;;;;;;;;;;4577834;27;20101;-60
2023/02/04 01:07:19;;;;;;;2.00;1.00;;;;;;;;;;4585209;27;20023;-60
2023/02/04 01:09:29;;;;;;;3.03;1.17;;;;;;;;;;4589854;27;20047;-60
2023/02/04 01:11:40;;;;;;;2.60;1.10;;;;;;;;;;4587163;27;20799;-61
2023/02/04 01:13:50;;;;;;;2.28;0.98;;;;;;;;;;4587367;27;20039;-60
2023/02/04 01:16:01;;;;;;;3.78;1.00;;;;;;;;;;4586030;27;20051;-61
2023/02/04 01:18:12;;;;;;;2.97;1.20;;;;;;;;;;4585352;27;20047;-60
2023/02/04 01:20:22;;;;;;;2.47;1.15;;;;;;;;;;4584640;27;20129;-60
2023/02/04 01:22:33;;;;;;;3.75;1.15;;;;;;;;;;4590877;27;20035;-61
2023/02/04 01:24:43;;;;;;;2.72;1.10;;;;;;;;;;4589825;27;20503;-61
2023/02/04 01:27:12;;;;;;;2.30;0.82;;;;;;;;;;4591665;27;20566;-60
2023/02/04 01:29:22;;;;;;;2.38;1.00;;;;;;;;;;4589686;27;20185;-61
2023/02/04 01:31:34;;;;;;;2.70;1.02;;;;;;;;;;4591107;27;20254;-60
2023/02/04 01:33:46;;;;;;;2.78;1.00;;;;;;;;;;4594217;27;20050;-60
2023/02/04 01:35:56;;;;;;;2.08;1.08;;;;;;;;;;4591124;27;20043;-60
2023/02/04 01:38:06;;;;;;;2.40;0.90;;;;;;;;;;4590027;27;20043;-60
2023/02/04 01:40:17;;;;;;;2.85;1.33;;;;;;;;;;4588818;27;20071;-60
2023/02/04 01:42:27;;;;;;;2.40;1.23;;;;;;;;;;4591289;27;20115;-60
2023/02/04 01:44:38;;;;;;;3.15;1.02;;;;;;;;;;4590463;27;20698;-60
2023/02/04 01:46:48;;;;;;;2.72;1.10;;;;;;;;;;4590484;27;20133;-62
2023/02/04 01:49:00;;;;;;;2.58;1.10;;;;;;;;;;4590655;27;20876;-62
2023/02/04 01:51:12;;;;;;;2.90;1.17;;;;;;;;;;4591805;27;20119;-60
2023/02/04 01:53:25;;;;;;;2.55;0.88;;;;;;;;;;4592190;27;21343;-60
2023/02/04 01:55:35;;;;;;;2.25;1.00;;;;;;;;;;4590904;27;20143;-60
2023/02/04 01:57:46;;;;;;;3.33;1.00;;;;;;;;;;4591935;27;20036;-60
2023/02/04 01:59:56;;;;;;;2.65;1.02;;;;;;;;;;4590859;27;20574;-61
2023/02/04 02:02:25;;;;;;;3.17;1.30;;;;;;;;;;4579224;27;20040;-61
2023/02/04 02:04:35;;;;;;;3.47;1.20;;;;;;;;;;4576664;27;20048;-59
2023/02/04 02:06:48;;;;;;;2.90;1.40;;;;;;;;;;4589417;27;20024;-60
2023/02/04 02:08:58;;;;;;;2.83;1.20;;;;;;;;;;4589260;27;20085;-60
2023/02/04 02:11:08;;;;;;;2.50;1.10;;;;;;;;;;4589694;27;20031;-60
2023/02/04 02:13:19;;;;;;;2.95;0.98;;;;;;;;;;4590504;27;20027;-60
2023/02/04 02:15:29;;;;;;;2.33;1.00;;;;;;;;;;4587313;27;20046;-61
2023/02/04 02:17:40;;;;;;;1.83;1.02;;;;;;;;;;4592862;27;20093;-60
2023/02/04 02:19:50;;;;;;;2.55;1.05;;;;;;;;;;4573939;27;20048;-60
2023/02/04 02:22:09;;;;;;;2.75;1.10;;;;;;;;;;4589220;27;20295;-60
2023/02/04 02:24:27;;;;;;;2.15;1.02;;;;;;;;;;4580703;27;20047;-60
2023/02/04 02:26:37;;;;;;;2.35;1.10;;;;;;;;;;4589378;27;20842;-61
2023/02/04 02:28:48;;;;;;;2.58;0.93;;;;;;;;;;4584811;27;20047;-60
2023/02/04 02:30:59;;;;;;;2.53;1.10;;;;;;;;;;4589640;27;20500;-60
2023/02/04 02:33:09;;;;;;;1.55;0.90;;;;;;;;;;4578874;27;20036;-60
2023/02/04 02:35:20;;;;;;;2.30;1.20;;;;;;;;;;4592388;27;20051;-61
2023/02/04 02:37:30;;;;;;;2.60;1.00;;;;;;;;;;4592532;27;20046;-61
2023/02/04 02:39:43;;;;;;;2.47;1.10;;;;;;;;;;4591517;27;20146;-60
2023/02/04 02:41:54;;;;;;;2.70;0.98;;;;;;;;;;4586683;27;20035;-61
2023/02/04 02:44:05;;;;;;;2.63;1.20;;;;;;;;;;4584956;27;20050;-61
2023/02/04 02:46:16;;;;;;;1.80;0.90;;;;;;;;;;4589883;27;20130;-60
2023/02/04 02:48:26;;;;;;;2.85;1.10;;;;;;;;;;4603248;27;20039;-60
2023/02/04 02:50:37;;;;;;;2.55;1.08;;;;;;;;;;4589267;27;20040;-60
2023/02/04 02:52:47;;;;;;;2.08;0.88;;;;;;;;;;4591642;27;20036;-60
2023/02/04 02:54:57;;;;;;;1.55;0.98;;;;;;;;;;4592580;27;20019;-60
2023/02/04 02:57:12;;;;;;;2.78;0.90;;;;;;;;;;4592117;27;20036;-61
2023/02/04 02:59:23;;;;;;;2.13;0.90;;;;;;;;;;4578563;27;20032;-60
2023/02/04 03:01:34;;;;;;;1.83;0.85;;;;;;;;;;4589558;27;20035;-60
2023/02/04 03:03:46;;;;;;;2.05;1.02;;;;;;;;;;4588833;27;20042;-60
2023/02/04 03:05:59;;;;;;;1.77;0.80;;;;;;;;;;4592303;27;20027;-61
2023/02/04 03:08:11;;;;;;;2.85;1.02;;;;;;;;;;4588404;27;22174;-60
2023/02/04 03:10:21;;;;;;;1.63;1.00;;;;;;;;;;4590738;27;20692;-61
2023/02/04 03:12:32;;;;;;;1.63;0.80;;;;;;;;;;4591720;27;20463;-61
2023/02/04 03:14:44;;;;;;;2.28;1.02;;;;;;;;;;4590307;27;20527;-60
2023/02/04 03:16:55;;;;;;;1.98;0.77;;;;;;;;;;4589392;27;20032;-60
2023/02/04 03:19:06;;;;;;;3.08;1.00;;;;;;;;;;4589879;27;20027;-60
2023/02/04 03:21:16;;;;;;;1.88;0.95;;;;;;;;;;4590238;27;20117;-61
2023/02/04 03:23:27;;;;;;;1.80;0.98;;;;;;;;;;4588341;27;20213;-60
2023/02/04 03:25:37;;;;;;;1.90;0.93;;;;;;;;;;4590680;27;20040;-61
2023/02/04 03:27:47;;;;;;;2.15;1.00;;;;;;;;;;4591430;27;20027;-60
2023/02/04 03:29:58;;;;;;;1.60;0.80;;;;;;;;;;4589068;27;20044;-61
2023/02/04 03:32:08;;;;;;;2.33;1.10;;;;;;;;;;4592121;27;20161;-60
2023/02/04 03:34:18;;;;;;;2.35;0.90;;;;;;;;;;4587395;27;20039;-61
2023/02/04 03:36:29;;;;;;;2.03;1.13;;;;;;;;;;4588664;27;20146;-60
2023/02/04 03:38:40;;;;;;;2.40;1.00;;;;;;;;;;4590198;27;20047;-61
2023/02/04 03:40:50;;;;;;;2.40;1.10;;;;;;;;;;4589512;27;20043;-60
2023/02/04 03:43:00;;;;;;;1.90;1.00;;;;;;;;;;4588359;27;20404;-61
2023/02/04 03:45:11;;;;;;;2.63;1.13;;;;;;;;;;4590352;27;20047;-60
2023/02/04 03:47:21;;;;;;;2.28;0.93;;;;;;;;;;4587686;27;20039;-61
2023/02/04 03:49:31;;;;;;;4.38;1.38;;;;;;;;;;4590011;27;20131;-61
2023/02/04 03:51:42;;;;;;;1.75;0.90;;;;;;;;;;4589761;27;20583;-60
2023/02/04 03:53:52;;;;;;;2.72;1.17;;;;;;;;;;4590898;27;20077;-60
2023/02/04 03:56:03;;;;;;;2.33;1.05;;;;;;;;;;4590331;27;20117;-61
2023/02/04 03:58:13;;;;;;;2.17;1.27;;;;;;;;;;4588931;27;20098;-59
2023/02/04 04:00:23;;;;;;;2.40;1.05;;;;;;;;;;4587489;27;20036;-61
2023/02/04 04:02:33;;;;;;;2.42;1.00;;;;;;;;;;4591016;27;20538;-61
2023/02/04 04:04:44;;;;;;;3.25;1.10;;;;;;;;;;4589365;27;20043;-59
2023/02/04 04:06:54;;;;;;;2.00;1.00;;;;;;;;;;4588022;27;20981;-60
2023/02/04 04:09:04;;;;;;;2.30;1.13;;;;;;;;;;4588126;27;20028;-60
2023/02/04 04:11:15;;;;;;;2.08;1.05;;;;;;;;;;4590068;27;20047;-60
2023/02/04 04:13:25;;;;;;;2.65;1.10;;;;;;;;;;4591641;27;20035;-60
2023/02/04 04:15:35;;;;;;;2.78;1.17;;;;;;;;;;4587631;27;20043;-60
2023/02/04 04:17:45;;;;;;;2.45;1.00;;;;;;;;;;4590866;27;20039;-61
2023/02/04 04:19:56;;;;;;;2.97;1.13;;;;;;;;;;4590639;27;20685;-60
2023/02/04 04:22:06;;;;;;;2.58;1.10;;;;;;;;;;4588043;27;20043;-60
2023/02/04 04:24:16;;;;;;;3.08;1.23;;;;;;;;;;4586682;27;20043;-61
2023/02/04 04:26:27;;;;;;;2.72;0.90;;;;;;;;;;4588444;27;20184;-60
2023/02/04 04:28:37;;;;;;;2.50;0.90;;;;;;;;;;4588198;27;20035;-60
2023/02/04 04:30:47;;;;;;;2.25;1.10;;;;;;;;;;4587806;27;20116;-60
2023/02/04 04:32:58;;;;;;;3.72;1.27;;;;;;;;;;4590846;27;20100;-61
2023/02/04 04:35:08;;;;;;;2.53;1.00;;;;;;;;;;4590066;27;20538;-61
2023/02/04 04:37:18;;;;;;;2.30;1.08;;;;;;;;;;4587424;27;20043;-61
2023/02/04 04:39:29;;;;;;;2.78;1.15;;;;;;;;;;4588624;27;20078;-60
2023/02/04 04:41:39;;;;;;;2.60;1.00;;;;;;;;;;4587979;27;20038;-61
2023/02/04 04:43:49;;;;;;;2.28;1.02;;;;;;;;;;4588889;27;20052;-61
2023/02/04 04:45:59;;;;;;;3.22;1.15;;;;;;;;;;4588060;27;20036;-60
2023/02/04 04:48:10;;;;;;;3.22;1.23;;;;;;;;;;4589397;27;20178;-61
2023/02/04 04:50:20;;;;;;;3.15;1.00;;;;;;;;;;4587175;27;20023;-60
2023/02/04 04:52:30;;;;;;;2.45;0.90;;;;;;;;;;4587284;27;20531;-60
2023/02/04 04:54:40;;;;;;;2.28;1.10;;;;;;;;;;4587385;27;20024;-60
2023/02/04 04:56:51;;;;;;;3.53;1.00;;;;;;;;;;4588685;27;20046;-60
2023/02/04 04:59:02;;;;;;;3.40;1.10;;;;;;;;;;4587897;27;20541;-60
2023/02/04 05:01:12;;;;;;;2.33;1.10;;;;;;;;;;4587137;27;20096;-61
2023/02/04 05:03:22;;;;;;;1.70;0.88;;;;;;;;;;4587849;27;20035;-60
2023/02/04 05:05:38;;;;;;;2.63;1.00;;;;;;;;;;4590564;27;20079;-61
2023/02/04 05:07:48;;;;;;;2.22;1.10;;;;;;;;;;4588957;27;20116;-60
2023/02/04 05:09:59;;;;;;;2.72;1.15;;;;;;;;;;4588067;27;20104;-60
2023/02/04 05:12:09;;;;;;;2.10;1.10;;;;;;;;;;4587354;27;20036;-61
2023/02/04 05:14:19;;;;;;;2.45;1.20;;;;;;;;;;4587104;27;20036;-60
2023/02/04 05:16:30;;;;;;;3.22;1.27;;;;;;;;;;4588199;27;20098;-60
2023/02/04 05:18:40;;;;;;;3.15;1.13;;;;;;;;;;4585510;27;20040;-60
2023/02/04 05:20:51;;;;;;;2.97;0.93;;;;;;;;;;4587355;27;20035;-61
2023/02/04 05:23:01;;;;;;;2.53;1.25;;;;;;;;;;4590408;27;20046;-60
2023/02/04 05:25:12;;;;;;;2.03;1.15;;;;;;;;;;4588033;27;20058;-62
2023/02/04 05:27:22;;;;;;;2.20;1.02;;;;;;;;;;4587832;27;20039;-61
2023/02/04 05:29:32;;;;;;;2.13;1.10;;;;;;;;;;4587045;27;20036;-60
2023/02/04 05:31:42;;;;;;;2.45;1.20;;;;;;;;;;4585319;27;20036;-60
2023/02/04 05:33:53;;;;;;;2.42;1.17;;;;;;;;;;4588685;27;20047;-61
2023/02/04 05:36:03;;;;;;;2.90;1.20;;;;;;;;;;4586974;27;20043;-61
2023/02/04 05:38:14;;;;;;;3.20;1.02;;;;;;;;;;4586777;27;20139;-60
2023/02/04 05:40:24;;;;;;;1.73;1.00;;;;;;;;;;4586332;27;20028;-61
2023/02/04 05:42:34;;;;;;;2.95;1.20;;;;;;;;;;4589650;27;20133;-60
2023/02/04 05:44:45;;;;;;;2.35;1.20;;;;;;;;;;4589317;27;20028;-60
2023/02/04 05:46:55;;;;;;;2.88;1.30;;;;;;;;;;4587420;27;20081;-61
2023/02/04 05:49:07;;;;;;;2.25;1.08;;;;;;;;;;4589765;27;20503;-60
2023/02/04 05:51:17;;;;;;;1.90;1.00;;;;;;;;;;4587532;27;20032;-61
2023/02/04 05:53:27;;;;;;;2.00;1.10;;;;;;;;;;4588475;27;20495;-60
2023/02/04 05:55:38;;;;;;;1.83;1.10;;;;;;;;;;4588029;27;20953;-60
2023/02/04 05:57:48;;;;;;;1.85;1.02;;;;;;;;;;4587044;27;20051;-60
2023/02/04 05:59:58;;;;;;;2.60;1.15;;;;;;;;;;4590140;27;20435;-60
2023/02/04 06:02:08;;;;;;;2.92;1.27;;;;;;;;;;4589233;27;20027;-61
2023/02/04 06:04:19;;;;;;;2.70;1.10;;;;;;;;;;4587184;27;20051;-60
2023/02/04 06:06:29;;;;;;;3.00;1.13;;;;;;;;;;4585579;27;20069;-60
2023/02/04 06:08:39;;;;;;;2.67;1.10;;;;;;;;;;4587536;27;20052;-60
2023/02/04 06:10:50;;;;;;;3.28;1.40;;;;;;;;;;4592476;27;20039;-60
2023/02/04 06:13:00;;;;;;;1.58;0.98;;;;;;;;;;4591059;27;20039;-60
2023/02/04 06:15:11;;;;;;;2.20;1.15;;;;;;;;;;4590053;27;20035;-60
2023/02/04 06:17:22;;;;;;;2.88;1.23;;;;;;;;;;4591395;27;20281;-59
2023/02/04 06:19:32;;;;;;;2.35;1.00;;;;;;;;;;4590852;27;20043;-61
2023/02/04 06:21:42;;;;;;;2.80;1.00;;;;;;;;;;4587678;27;20066;-60
2023/02/04 06:23:53;;;;;;;1.83;0.82;;;;;;;;;;4589164;27;20032;-60
2023/02/04 06:26:03;;;;;;;3.85;1.20;;;;;;;;;;4590053;27;20032;-60
2023/02/04 06:28:13;;;;;;;1.95;0.93;;;;;;;;;;4591355;27;20439;-61
2023/02/04 06:30:24;;;;;;;2.97;1.10;;;;;;;;;;4588930;27;20028;-60
2023/02/04 06:32:34;;;;;;;2.25;1.00;;;;;;;;;;4590102;27;20049;-60
2023/02/04 06:34:44;;;;;;;2.55;1.10;;;;;;;;;;4591661;27;20030;-61
2023/02/04 06:36:55;;;;;;;2.17;0.90;;;;;;;;;;4591028;27;20052;-61
2023/02/04 06:39:05;;;;;;;2.78;1.20;;;;;;;;;;4588559;27;20086;-60
2023/02/04 06:41:15;;;;;;;2.47;1.17;;;;;;;;;;4587829;27;20130;-61
2023/02/04 06:43:26;;;;;;;2.30;0.90;;;;;;;;;;4587466;27;20036;-60
2023/02/04 06:45:37;;;;;;;2.42;1.05;;;;;;;;;;4589787;27;20035;-61
2023/02/04 06:47:47;;;;;;;2.92;1.08;;;;;;;;;;4591386;27;20796;-61
2023/02/04 06:49:57;;;;;;;2.47;1.17;;;;;;;;;;4592437;27;20093;-61
2023/02/04 06:52:08;;;;;;;2.08;0.93;;;;;;;;;;4589379;27;20443;-60
2023/02/04 06:54:18;;;;;;;3.10;1.35;;;;;;;;;;4590511;27;20047;-61
2023/02/04 06:56:28;;;;;;;3.25;1.30;;;;;;;;;;4589994;27;20123;-60
2023/02/04 06:58:39;;;;;;;2.17;1.20;;;;;;;;;;4589752;27;20035;-60
2023/02/04 07:00:49;;;;;;;2.05;1.30;;;;;;;;;;4590439;27;20450;-61
2023/02/04 07:02:59;;;;;;;3.35;1.20;;;;;;;;;;4589987;27;20038;-61
2023/02/04 07:05:10;;;;;;;1.80;1.00;;;;;;;;;;4591999;27;20049;-61
2023/02/04 07:07:20;;;;;;;2.00;1.00;;;;;;;;;;4590606;27;20028;-64
2023/02/04 07:09:31;;;;;;;2.30;1.05;;;;;;;;;;4589629;27;20142;-62
2023/02/04 07:11:41;;;;;;;2.22;1.05;;;;;;;;;;4589301;27;20383;-63
2023/02/04 07:13:51;;;;;;;1.65;0.90;;;;;;;;;;4587889;27;20051;-62
2023/02/04 07:16:02;;;;;;;2.08;1.00;;;;;;;;;;4588286;27;20781;-62
2023/02/04 07:18:12;;;;;;;1.90;0.80;;;;;;;;;;4588718;27;20498;-62
2023/02/04 07:20:22;;;;;;;1.80;0.90;;;;;;;;;;4587316;27;20040;-61
2023/02/04 07:22:33;;;;;;;1.98;0.90;;;;;;;;;;4588560;27;20648;-62
2023/02/04 07:24:43;;;;;;;2.47;1.00;;;;;;;;;;4588882;27;20122;-62
2023/02/04 07:26:53;;;;;;;2.35;1.00;;;;;;;;;;4586957;27;20035;-62
2023/02/04 07:29:04;;;;;;;1.73;0.73;;;;;;;;;;4588448;27;20051;-61
2023/02/04 07:31:14;;;;;;;1.35;0.63;;;;;;;;;;4589951;27;20156;-62
2023/02/04 07:33:24;;;;;;;2.25;0.85;;;;;;;;;;4588426;27;20031;-62
2023/02/04 07:35:36;;;;;;;1.80;0.65;;;;;;;;;;4590572;27;20147;-62
2023/02/04 07:37:47;;;;;;;1.60;0.75;;;;;;;;;;4588192;27;20031;-63
2023/02/04 07:39:57;;;;;;;1.42;0.80;;;;;;;;;;4587186;27;20020;-62
2023/02/04 07:42:07;;;;;;;1.95;0.60;;;;;;;;;;4586855;27;20040;-62
2023/02/04 07:44:26;;;;;;;1.60;0.70;;;;;;;;;;4576826;27;20031;-62
2023/02/04 07:46:37;;;;;;;1.42;0.60;;;;;;;;;;4586277;27;20036;-63
2023/02/04 07:48:47;;;;;;;1.55;0.70;;;;;;;;;;4590622;27;20044;-61
2023/02/04 07:50:57;;;;;;;1.63;0.68;;;;;;;;;;4585775;27;20092;-62
2023/02/04 07:53:08;;;;;;;0.90;0.50;;;;;;;;;;4588830;27;20138;-62
2023/02/04 07:55:18;;;;;;;1.17;0.60;;;;;;;;;;4588181;27;20104;-62
2023/02/04 07:57:28;;;;;;;1.50;0.60;;;;;;;;;;4587675;27;20096;-62
2023/02/04 07:59:39;;;;;;;0.80;0.57;;;;;;;;;;4587626;27;20038;-63
2023/02/04 08:01:49;;;;;;;0.95;0.55;;;;;;;;;;4588051;27;20036;-62
2023/02/04 08:04:00;;;;;;;1.15;0.60;;;;;;;;;;4580191;27;20070;-62
2023/02/04 08:06:10;;;;;;;1.92;0.70;;;;;;;;;;4564840;27;20050;-62
2023/02/04 08:08:20;;;;;;;1.20;0.70;;;;;;;;;;4577772;27;20036;-62
2023/02/04 08:10:30;;;;;;;0.82;0.40;;;;;;;;;;4577492;27;20492;-62
2023/02/04 08:12:41;;;;;;;1.75;0.73;;;;;;;;;;4557501;27;20059;-62
2023/02/04 08:14:51;;;;;;;1.17;0.60;;;;;;;;;;4576905;27;20038;-62
2023/02/04 08:17:02;;;;;;;1.25;0.55;;;;;;;;;;4576613;27;20031;-62
2023/02/04 08:19:17;;;;;;;1.40;0.68;;;;;;;;;;4577192;27;20040;-62
2023/02/04 08:21:28;;;;;;;1.35;0.70;;;;;;;;;;4583487;27;20038;-62
2023/02/04 08:23:40;;;;;;;1.42;0.60;;;;;;;;;;4577081;27;20031;-62
2023/02/04 08:25:50;;;;;;;1.35;0.60;;;;;;;;;;4581284;27;20583;-63
2023/02/04 14:26:16;;;;;;;0.60;0.60;;;;;;;;;;4514405;28;20634;-62
2023/02/04 14:28:27;;;;;;;1.08;0.70;;;;;;;;;;4500629;28;20048;-62
2023/02/04 14:30:37;;;;;;;1.58;1.15;;;;;;;;;;4506460;28;21925;-62
2023/02/04 14:32:47;;;;;;;0.77;0.60;;;;;;;;;;4508482;28;20210;-62
2023/02/04 14:34:58;;;;;;;0.85;0.70;;;;;;;;;;4493802;28;20044;-62
2023/02/04 14:37:08;;;;;;;0.90;0.75;;;;;;;;;;4489587;28;20064;-62
2023/02/04 14:39:18;;;;;;;0.60;0.55;;;;;;;;;;4505994;28;20121;-62
2023/02/04 14:41:30;;;;;;;0.90;0.65;;;;;;;;;;4506821;28;20038;-61
2023/02/04 14:43:40;;;;;;;1.17;0.70;;;;;;;;;;4509328;28;20390;-62
2023/02/04 14:45:51;;;;;;;0.77;0.70;;;;;;;;;;4500131;28;20061;-62
2023/02/04 14:48:01;;;;;;;0.80;0.65;;;;;;;;;;4489133;28;20037;-62
2023/02/04 14:50:13;;;;;;;0.77;0.60;;;;;;;;;;4508258;28;20064;-62
2023/02/04 14:52:23;;;;;;;1.00;0.70;;;;;;;;;;4507724;28;20040;-62
2023/02/04 14:54:34;;;;;;;0.50;0.50;;;;;;;;;;4505901;28;20040;-61
2023/02/04 14:56:46;;;;;;;0.73;0.63;;;;;;;;;;4507884;28;20156;-61
2023/02/04 14:58:56;;;;;;;0.95;0.57;;;;;;;;;;4509212;28;20040;-61
2023/02/04 15:01:07;;;;;;;1.15;0.60;;;;;;;;;;4509304;28;20051;-61
2023/02/04 15:03:17;;;;;;;1.08;0.52;;;;;;;;;;4509435;28;20033;-62
2023/02/04 15:05:27;;;;;;;0.73;0.57;;;;;;;;;;4507770;28;20068;-61
2023/02/04 15:07:38;;;;;;;0.93;0.60;;;;;;;;;;4510496;28;20156;-63
2023/02/04 15:09:48;;;;;;;0.50;0.50;;;;;;;;;;4508048;28;20041;-60
2023/02/04 15:11:59;;;;;;;0.98;0.60;;;;;;;;;;4506134;28;21063;-62
2023/02/04 15:14:09;;;;;;;0.70;0.55;;;;;;;;;;4507348;28;20427;-61
2023/02/04 15:16:19;;;;;;;1.20;0.80;;;;;;;;;;4506616;28;20383;-61
2023/02/04 15:18:30;;;;;;;1.45;1.08;;;;;;;;;;4508890;28;20048;-61
2023/02/04 15:20:41;;;;;;;2.45;1.60;;;;;;;;;;4508907;28;20408;-61
2023/02/04 15:22:53;;;;;;;2.17;1.42;;;;;;;;;;4507451;28;20128;-61
2023/02/04 15:25:04;;;;;;;2.60;1.70;;;;;;;;;;4508097;28;20621;-62
2023/02/04 15:27:14;;;;;;;2.28;1.60;;;;;;;;;;4507137;28;20327;-61
2023/02/04 15:29:24;;;;;;;19.83;18.13;;;;;;;;;;4507580;28;20441;-61
2023/02/04 15:31:35;;;;;;;6.53;5.32;;;;;;;;;;4506689;28;20406;-61
2023/02/04 15:33:45;;;;;;;6.30;4.13;;;;;;;;;;4506501;28;20041;-61
2023/02/04 15:35:55;;;;;;;2.40;1.80;;;;;;;;;;4507619;28;20045;-62
2023/02/04 15:38:06;;;;;;;1.08;0.77;;;;;;;;;;4506025;28;20509;-61
2023/02/04 15:40:16;;;;;;;1.17;0.80;;;;;;;;;;4507002;28;20045;-61
2023/02/04 15:42:26;;;;;;;0.73;0.70;;;;;;;;;;4508199;28;20141;-62
2023/02/04 15:44:37;;;;;;;0.60;0.60;;;;;;;;;;4507859;28;20084;-60
2023/02/04 15:46:48;;;;;;;1.13;0.85;;;;;;;;;;4507012;28;20050;-61
2023/02/04 15:48:59;;;;;;;1.15;0.90;;;;;;;;;;4508473;28;20088;-61
2023/02/04 15:51:09;;;;;;;1.52;1.20;;;;;;;;;;4507709;28;20048;-61
2023/02/04 15:53:20;;;;;;;1.67;1.20;;;;;;;;;;4504437;28;20570;-61
2023/02/04 15:55:30;;;;;;;1.50;1.33;;;;;;;;;;4506816;28;20384;-61
2023/02/04 15:57:40;;;;;;;1.95;1.58;;;;;;;;;;4504848;28;20497;-61
2023/02/04 15:59:51;;;;;;;1.58;1.20;;;;;;;;;;4487380;28;20478;-61
2023/02/04 16:02:01;;;;;;;0.95;0.82;;;;;;;;;;4506461;28;20442;-61
2023/02/04 16:04:11;;;;;;;1.10;0.90;;;;;;;;;;4506202;28;20041;-61
2023/02/04 16:06:22;;;;;;;1.27;1.15;;;;;;;;;;4505552;28;20041;-62
2023/02/04 16:08:32;;;;;;;1.88;1.38;;;;;;;;;;4487991;28;20340;-63
2023/02/04 16:10:43;;;;;;;1.10;0.90;;;;;;;;;;4507163;28;20341;-62
2023/02/04 16:12:56;;;;;;;2.08;1.52;;;;;;;;;;4497039;28;20065;-61
2023/02/04 16:15:07;;;;;;;1.40;1.30;;;;;;;;;;4504901;28;20585;-62
2023/02/04 16:17:17;;;;;;;1.70;1.10;;;;;;;;;;4505901;28;20033;-61
2023/02/04 16:19:27;;;;;;;1.35;0.90;;;;;;;;;;4506697;28;20041;-61
2023/02/04 16:21:38;;;;;;;1.33;0.93;;;;;;;;;;4505476;28;20076;-61
2023/02/04 16:23:48;;;;;;;1.70;1.40;;;;;;;;;;4506540;28;20041;-60
2023/02/04 16:25:58;;;;;;;1.40;1.10;;;;;;;;;;4505935;28;20136;-60
2023/02/04 16:28:09;;;;;;;1.15;0.90;;;;;;;;;;4505693;28;20025;-61
2023/02/04 16:30:19;;;;;;;1.60;1.20;;;;;;;;;;4508314;28;20040;-61
2023/02/04 16:32:32;;;;;;;1.75;1.50;;;;;;;;;;4508643;28;20045;-61
2023/02/04 16:34:42;;;;;;;1.10;1.00;;;;;;;;;;4507989;28;20604;-60
2023/02/04 16:36:52;;;;;;;0.75;0.70;;;;;;;;;;4506158;28;20076;-60
2023/02/04 16:39:03;;;;;;;0.60;0.60;;;;;;;;;;4506520;28;20096;-61
2023/02/04 16:41:13;;;;;;;0.95;0.85;;;;;;;;;;4508211;28;20189;-60
2023/02/04 16:43:24;;;;;;;1.13;0.98;;;;;;;;;;4507461;28;20037;-61
2023/02/04 16:45:37;;;;;;;1.50;0.95;;;;;;;;;;4506450;28;20049;-61
2023/02/04 16:47:47;;;;;;;1.15;1.05;;;;;;;;;;4507038;28;20030;-60
2023/02/04 16:49:59;;;;;;;1.40;1.20;;;;;;;;;;4506136;28;20272;-61
2023/02/04 16:52:10;;;;;;;1.02;0.93;;;;;;;;;;4505765;28;20068;-61
2023/02/04 16:54:20;;;;;;;0.98;0.88;;;;;;;;;;4489272;28;20630;-60
2023/02/04 16:56:34;;;;;;;0.68;0.68;;;;;;;;;;4509128;28;20161;-60
2023/02/04 16:58:44;;;;;;;0.50;0.50;;;;;;;;;;4507787;28;20077;-60
2023/02/04 17:00:55;;;;;;;1.05;0.82;;;;;;;;;;4507796;28;20120;-62
2023/02/04 17:03:06;;;;;;;0.73;0.73;;;;;;;;;;4506797;28;20639;-60
2023/02/04 17:05:16;;;;;;;1.02;0.93;;;;;;;;;;4506152;28;20065;-60
2023/02/04 17:07:27;;;;;;;1.40;1.00;;;;;;;;;;4508108;28;20763;-61
2023/02/04 17:09:37;;;;;;;1.60;1.50;;;;;;;;;;4508633;28;20169;-60
2023/02/04 17:11:47;;;;;;;1.10;0.98;;;;;;;;;;4507939;28;20033;-60
2023/02/04 17:13:59;;;;;;;1.45;1.00;;;;;;;;;;4508422;28;20083;-61
2023/02/04 17:16:09;;;;;;;1.17;0.80;;;;;;;;;;4506919;28;20037;-60
2023/02/04 17:18:19;;;;;;;1.27;0.80;;;;;;;;;;4507803;28;20030;-60
2023/02/04 17:20:30;;;;;;;0.73;0.73;;;;;;;;;;4506377;28;20042;-61
2023/02/04 17:22:40;;;;;;;0.80;0.80;;;;;;;;;;4495464;28;20038;-61
2023/02/04 17:24:50;;;;;;;1.30;1.20;;;;;;;;;;4506125;28;20183;-60
2023/02/04 17:27:02;;;;;;;1.10;0.98;;;;;;;;;;4506467;28;20151;-61
2023/02/04 17:29:13;;;;;;;1.85;1.10;;;;;;;;;;4507176;28;20034;-61
2023/02/04 17:31:23;;;;;;;1.40;1.10;;;;;;;;;;4508921;28;20030;-60
2023/02/04 17:33:34;;;;;;;1.52;1.15;;;;;;;;;;4507415;28;20486;-61
2023/02/04 17:35:44;;;;;;;1.00;1.00;;;;;;;;;;4507459;28;20044;-61
2023/02/04 17:37:55;;;;;;;1.48;1.00;;;;;;;;;;4497735;28;20164;-60
2023/02/04 17:40:05;;;;;;;0.77;0.77;;;;;;;;;;4507287;28;20045;-60
2023/02/04 17:42:16;;;;;;;1.10;0.95;;;;;;;;;;4493946;28;20065;-60
2023/02/04 17:44:26;;;;;;;1.17;1.08;;;;;;;;;;4506372;28;20073;-61
2023/02/04 17:46:36;;;;;;;0.80;0.80;;;;;;;;;;4487761;28;20562;-60
2023/02/04 17:48:47;;;;;;;1.42;1.10;;;;;;;;;;4506054;28;20045;-60
2023/02/04 17:50:57;;;;;;;1.30;1.20;;;;;;;;;;4507994;28;20034;-61
2023/02/04 17:53:08;;;;;;;1.58;1.27;;;;;;;;;;4497750;28;20036;-60
2023/02/04 17:55:21;;;;;;;0.90;0.90;;;;;;;;;;4505807;28;20701;-60
2023/02/04 17:57:31;;;;;;;1.27;1.17;;;;;;;;;;4506004;28;20033;-61
2023/02/04 17:59:42;;;;;;;1.30;1.10;;;;;;;;;;4506582;28;20037;-60
2023/02/04 18:01:52;;;;;;;0.90;0.90;;;;;;;;;;4505559;28;20128;-60
2023/02/04 18:04:03;;;;;;;1.10;1.00;;;;;;;;;;4508501;28;20030;-60
2023/02/04 18:06:16;;;;;;;1.02;0.90;;;;;;;;;;4509897;28;20052;-60
2023/02/04 18:08:30;;;;;;;1.00;0.90;;;;;;;;;;4510726;28;20044;-60
2023/02/04 18:10:41;;;;;;;1.25;0.90;;;;;;;;;;4510113;28;21441;-60
2023/02/04 18:12:51;;;;;;;1.02;0.93;;;;;;;;;;4507327;28;20022;-61
2023/02/04 18:15:08;;;;;;;0.70;0.70;;;;;;;;;;4507655;28;20037;-60
2023/02/04 18:17:18;;;;;;;0.80;0.80;;;;;;;;;;4510593;28;20049;-60
2023/02/04 18:19:29;;;;;;;0.90;0.90;;;;;;;;;;4502195;28;20096;-61
2023/02/04 18:21:40;;;;;;;0.70;0.70;;;;;;;;;;4490106;28;20040;-61
2023/02/04 18:24:06;;;;;;;0.82;0.80;;;;;;;;;;4509478;28;20037;-60
2023/02/04 18:26:17;;;;;;;0.80;0.80;;;;;;;;;;4507205;28;20046;-60
2023/02/04 18:28:28;;;;;;;1.00;0.90;;;;;;;;;;4499543;28;20129;-61
2023/02/04 18:30:38;;;;;;;1.15;0.90;;;;;;;;;;4507514;28;20508;-61
2023/02/04 18:32:48;;;;;;;1.30;1.00;;;;;;;;;;4491956;28;20125;-60
2023/02/04 18:35:01;;;;;;;0.80;0.60;;;;;;;;;;4508620;28;20030;-60
2023/02/04 18:37:26;;;;;;;0.80;0.80;;;;;;;;;;4508179;28;20049;-61
2023/02/04 18:39:37;;;;;;;1.00;0.90;;;;;;;;;;4509995;28;20109;-61
2023/02/04 18:41:48;;;;;;;1.17;0.90;;;;;;;;;;4509367;28;20082;-60
2023/02/04 18:44:02;;;;;;;0.90;0.90;;;;;;;;;;4509133;28;20049;-60
2023/02/04 18:46:19;;;;;;;1.30;0.90;;;;;;;;;;4508583;28;20037;-60
2023/02/04 18:48:29;;;;;;;1.13;1.00;;;;;;;;;;4506744;28;20034;-60
2023/02/04 18:50:40;;;;;;;1.00;0.85;;;;;;;;;;4509118;28;20450;-61
2023/02/04 18:52:50;;;;;;;0.98;0.80;;;;;;;;;;4508553;28;20062;-60
2023/02/04 18:55:02;;;;;;;1.05;1.00;;;;;;;;;;4510337;28;20103;-60
2023/02/04 18:57:12;;;;;;;1.02;1.00;;;;;;;;;;4506453;28;20052;-60
2023/02/04 18:59:26;;;;;;;1.15;1.05;;;;;;;;;;4508317;28;20132;-61
2023/02/04 19:01:37;;;;;;;1.20;1.10;;;;;;;;;;4509505;28;20046;-60
2023/02/04 19:03:52;;;;;;;1.40;1.30;;;;;;;;;;4509281;28;20049;-61